Prinsendam — PBGH — position and weather

sailwx.info

Track history (hours):
 
Tides and Currents Weather Stations Pressure Air Temp Water Temp Dewpoint Dewpoint Depression Visibility Wind Speed Wind Dir Waves Ship Positions

Prinsendam

Operator: Holland America Line

Last reported at 2019-Mar-21 01:00 UTC. Time now 2019-Mar-22 12:53 UTC.
Position N 12°12' W 067°06'.

Type: Ship. MMSI: 244126000.

Wind from 070 at 18 knots

Barometer 1015.8 mb
Air temperature 26.5 ° C
Visibility: greater than 10.8 NM
Dewpoint 25.1 ° C
Water temperature 26.0 ° C

Date/timePositionNaut miles runAvg speedWind from/ knotsBaromVisibWave heightAir tempDewpointWater temp
2019-Mar-21 01:00N 12°12' W 067°06'30212.6 070 / 181015.810.8 26.525.126.0
2019-Mar-20 01:00N 12°54' W 062°00'53 3.3 100 / 151017.410.8 27.225.227.0
2019-Mar-19 09:00N 13°00' W 061°06'65 8.1 070 / 161016.210.8 25.522.626.0
2019-Mar-19 01:00N 13°06' W 060°00'47 3.0 090 / 141018.510.8 25.524.827.0
2019-Mar-18 09:00N 12°42' W 059°18'54016.4 080 / 271015.910.8 26.024.627.0
2019-Mar-17 00:00N 06°06' W 053°06'68 4.2 070 / 251014.810.8 26.525.827.0
2019-Mar-16 08:00N 05°18' W 052°18'6711.1 060 / 161013.5 5.4 26.525.826.7
2019-Mar-16 02:00N 04°48' W 051°18'279 8.4 060 / 201015.610.8 26.025.327.8
2019-Mar-14 16:57N 00°10' W 050°51'1016.1
2019-Mar-14 16:20N 00°05' W 050°59'516.7
2019-Mar-14 16:00N 00°01' W 051°02'714.5
2019-Mar-14 15:30S 00°05' W 051°07'612.0
2019-Mar-14 15:00S 00°07' W 051°12'510.5
2019-Mar-14 14:31S 00°11' W 051°16'815.1
2019-Mar-14 14:00S 00°17' W 051°21'914.9
2019-Mar-14 13:24S 00°25' W 051°25'21814.6
2019-Mar-13 22:28S 02°26' W 054°26'817.5
2019-Mar-13 22:01S 02°28' W 054°34'918.4
2019-Mar-13 21:30S 02°25' W 054°42'4 8.5
2019-Mar-13 21:00S 02°24' W 054°46'815.0
2019-Mar-13 20:31S 02°25' W 054°54'713.2
2019-Mar-13 20:00S 02°29' W 054°60'2 0.2
2019-Mar-13 09:56S 02°30' W 054°58'0 0.0
2019-Mar-13 09:31S 02°30' W 054°58'0 0.1
2019-Mar-13 09:00S 02°30' W 054°58'0 0.5
2019-Mar-13 08:25S 02°30' W 054°59'2 5.6
2019-Mar-13 08:00S 02°28' W 055°00'611.0
2019-Mar-13 07:30S 02°26' W 054°55'511.0
2019-Mar-13 07:00S 02°24' W 054°50'4 8.6
2019-Mar-13 06:30S 02°24' W 054°46'3 6.2
2019-Mar-13 06:00S 02°24' W 054°43'4 7.7
2019-Mar-13 05:31S 02°21' W 054°44'816.5
2019-Mar-13 05:01S 02°13' W 054°47'714.8
2019-Mar-13 04:31S 02°10' W 054°54'815.9
2019-Mar-13 04:00S 02°11' W 055°02'914.9
2019-Mar-13 03:25S 02°09' W 055°10'5514.6
2019-Mar-12 23:38S 02°06' W 056°05'217.9
2019-Mar-12 23:31S 02°08' W 056°07'4116.1
2019-Mar-12 21:00S 02°36' W 056°36'36 3.0 030 / 91009.6 5.4 29.528.828.7
2019-Mar-12 09:00S 02°30' W 057°12'6117.1 190 / 71011.1 5.4 25.524.828.7
2019-Mar-12 05:25S 02°55' W 058°08'921.2
2019-Mar-12 05:00S 03°03' W 058°10'714.9
2019-Mar-12 04:30S 03°11' W 058°11'917.3
2019-Mar-12 04:01S 03°12' W 058°20'714.0
2019-Mar-12 03:30S 03°10' W 058°27'5 9.1
2019-Mar-12 03:00S 03°10' W 058°31'816.1
2019-Mar-12 02:30S 03°18' W 058°34'816.7
2019-Mar-12 02:00S 03°23' W 058°40'6418.8
2019-Mar-11 22:36S 03°04' W 059°41'519.0
2019-Mar-11 22:21S 03°03' W 059°46'719.1
2019-Mar-11 22:00S 03°06' W 059°52'713.1
2019-Mar-11 21:30S 03°10' W 059°58'5 9.4
2019-Mar-11 21:00S 03°09' W 060°02'1 0.9
2019-Mar-11 20:27S 03°08' W 060°02'0 0.0
2019-Mar-11 19:54S 03°08' W 060°02'0 0.0
2019-Mar-11 19:30S 03°08' W 060°02'0 0.0
2019-Mar-11 18:54S 03°08' W 060°02'0 0.0
2019-Mar-11 18:30S 03°08' W 060°02'0 0.0
2019-Mar-11 18:00S 03°08' W 060°02'0 0.0
2019-Mar-11 17:24S 03°08' W 060°02'0 0.0
2019-Mar-11 16:54S 03°08' W 060°02'  
Track history (hours):
 
Tides and Currents Weather Stations Pressure Air Temp Water Temp Dewpoint Dewpoint Depression Visibility Wind Speed Wind Dir Waves Ship Positions

Prinsendam

Operator: Holland America Line

Last reported at 2019-Mar-21 01:00 UTC. Time now 2019-Mar-22 12:53 UTC.
Position N 12°12' W 067°06'.

Type: Ship. MMSI: 244126000.

Wind from 070 at 18 knots

Barometer 1015.8 mb
Air temperature 26.5 ° C
Visibility: greater than 10.8 NM
Dewpoint 25.1 ° C
Water temperature 26.0 ° C

Date/timePositionNaut miles runAvg speedWind from/ knotsBaromVisibWave heightAir tempDewpointWater temp
2019-Mar-21 01:00N 12°12' W 067°06'30212.6 070 / 181015.810.8 26.525.126.0
2019-Mar-20 01:00N 12°54' W 062°00'53 3.3 100 / 151017.410.8 27.225.227.0
2019-Mar-19 09:00N 13°00' W 061°06'65 8.1 070 / 161016.210.8 25.522.626.0
2019-Mar-19 01:00N 13°06' W 060°00'47 3.0 090 / 141018.510.8 25.524.827.0
2019-Mar-18 09:00N 12°42' W 059°18'54016.4 080 / 271015.910.8 26.024.627.0
2019-Mar-17 00:00N 06°06' W 053°06'68 4.2 070 / 251014.810.8 26.525.827.0
2019-Mar-16 08:00N 05°18' W 052°18'6711.1 060 / 161013.5 5.4 26.525.826.7
2019-Mar-16 02:00N 04°48' W 051°18'279 8.4 060 / 201015.610.8 26.025.327.8
2019-Mar-14 16:57N 00°10' W 050°51'1016.1
2019-Mar-14 16:20N 00°05' W 050°59'516.7
2019-Mar-14 16:00N 00°01' W 051°02'714.5
2019-Mar-14 15:30S 00°05' W 051°07'612.0
2019-Mar-14 15:00S 00°07' W 051°12'510.5
2019-Mar-14 14:31S 00°11' W 051°16'815.1
2019-Mar-14 14:00S 00°17' W 051°21'914.9
2019-Mar-14 13:24S 00°25' W 051°25'21814.6
2019-Mar-13 22:28S 02°26' W 054°26'817.5
2019-Mar-13 22:01S 02°28' W 054°34'918.4
2019-Mar-13 21:30S 02°25' W 054°42'4 8.5
2019-Mar-13 21:00S 02°24' W 054°46'815.0
2019-Mar-13 20:31S 02°25' W 054°54'713.2
2019-Mar-13 20:00S 02°29' W 054°60'2 0.2
2019-Mar-13 09:56S 02°30' W 054°58'0 0.0
2019-Mar-13 09:31S 02°30' W 054°58'0 0.1
2019-Mar-13 09:00S 02°30' W 054°58'0 0.5
2019-Mar-13 08:25S 02°30' W 054°59'2 5.6
2019-Mar-13 08:00S 02°28' W 055°00'611.0
2019-Mar-13 07:30S 02°26' W 054°55'511.0
2019-Mar-13 07:00S 02°24' W 054°50'4 8.6
2019-Mar-13 06:30S 02°24' W 054°46'3 6.2
2019-Mar-13 06:00S 02°24' W 054°43'4 7.7
2019-Mar-13 05:31S 02°21' W 054°44'816.5
2019-Mar-13 05:01S 02°13' W 054°47'714.8
2019-Mar-13 04:31S 02°10' W 054°54'815.9
2019-Mar-13 04:00S 02°11' W 055°02'914.9
2019-Mar-13 03:25S 02°09' W 055°10'5514.6
2019-Mar-12 23:38S 02°06' W 056°05'217.9
2019-Mar-12 23:31S 02°08' W 056°07'4116.1
2019-Mar-12 21:00S 02°36' W 056°36'36 3.0 030 / 91009.6 5.4 29.528.828.7
2019-Mar-12 09:00S 02°30' W 057°12'6117.1 190 / 71011.1 5.4 25.524.828.7
2019-Mar-12 05:25S 02°55' W 058°08'921.2
2019-Mar-12 05:00S 03°03' W 058°10'714.9
2019-Mar-12 04:30S 03°11' W 058°11'917.3
2019-Mar-12 04:01S 03°12' W 058°20'714.0
2019-Mar-12 03:30S 03°10' W 058°27'5 9.1
2019-Mar-12 03:00S 03°10' W 058°31'816.1
2019-Mar-12 02:30S 03°18' W 058°34'816.7
2019-Mar-12 02:00S 03°23' W 058°40'6418.8
2019-Mar-11 22:36S 03°04' W 059°41'519.0
2019-Mar-11 22:21S 03°03' W 059°46'719.1
2019-Mar-11 22:00S 03°06' W 059°52'713.1
2019-Mar-11 21:30S 03°10' W 059°58'5 9.4
2019-Mar-11 21:00S 03°09' W 060°02'1 0.9
2019-Mar-11 20:27S 03°08' W 060°02'0 0.0
2019-Mar-11 19:54S 03°08' W 060°02'0 0.0
2019-Mar-11 19:30S 03°08' W 060°02'0 0.0
2019-Mar-11 18:54S 03°08' W 060°02'0 0.0
2019-Mar-11 18:30S 03°08' W 060°02'0 0.0
2019-Mar-11 18:00S 03°08' W 060°02'0 0.0
2019-Mar-11 17:24S 03°08' W 060°02'0 0.0
2019-Mar-11 16:54S 03°08' W 060°02'  

Dump ship's entire track history